sensor_id;sensor_type;location;lat;lon;timestamp;pressure;altitude;pressure_sealevel;temperature;humidity
61488;BME280;47351;53.326;-6.298;2023-02-14T00:01:11;102358.27;;;6.14;70.70
61488;BME280;47351;53.326;-6.298;2023-02-14T00:04:20;102341.27;;;6.11;70.81
61488;BME280;47351;53.326;-6.298;2023-02-14T00:07:30;102323.77;;;6.07;70.98
61488;BME280;47351;53.326;-6.298;2023-02-14T00:10:39;102333.71;;;6.03;71.09
61488;BME280;47351;53.326;-6.298;2023-02-14T00:13:37;102352.88;;;6.00;71.22
61488;BME280;47351;53.326;-6.298;2023-02-14T00:16:47;102351.24;;;5.98;71.43
61488;BME280;47351;53.326;-6.298;2023-02-14T00:19:56;102346.19;;;5.96;71.45
61488;BME280;47351;53.326;-6.298;2023-02-14T00:23:05;102346.55;;;5.93;71.56
61488;BME280;47351;53.326;-6.298;2023-02-14T00:26:14;102341.78;;;5.92;71.71
61488;BME280;47351;53.326;-6.298;2023-02-14T00:29:06;102337.99;;;5.94;71.82
61488;BME280;47351;53.326;-6.298;2023-02-14T00:32:15;102338.75;;;5.96;72.03
61488;BME280;47351;53.326;-6.298;2023-02-14T00:35:24;102329.63;;;6.00;72.07
61488;BME280;47351;53.326;-6.298;2023-02-14T00:38:33;102326.42;;;6.07;72.27
61488;BME280;47351;53.326;-6.298;2023-02-14T00:41:42;102324.07;;;6.17;72.38
61488;BME280;47351;53.326;-6.298;2023-02-14T00:44:52;102310.14;;;6.25;72.27
61488;BME280;47351;53.326;-6.298;2023-02-14T00:48:01;102306.80;;;6.30;72.28
61488;BME280;47351;53.326;-6.298;2023-02-14T00:51:00;102311.55;;;6.34;72.18
61488;BME280;47351;53.326;-6.298;2023-02-14T00:54:01;102314.27;;;6.36;72.15
61488;BME280;47351;53.326;-6.298;2023-02-14T00:57:11;102313.86;;;6.37;72.17
61488;BME280;47351;53.326;-6.298;2023-02-14T01:00:13;102318.09;;;6.37;72.08
61488;BME280;47351;53.326;-6.298;2023-02-14T01:03:22;102316.11;;;6.35;71.98
61488;BME280;47351;53.326;-6.298;2023-02-14T01:06:31;102321.65;;;6.31;72.03
61488;BME280;47351;53.326;-6.298;2023-02-14T01:09:41;102316.64;;;6.32;72.42
61488;BME280;47351;53.326;-6.298;2023-02-14T01:12:50;102303.59;;;6.37;72.66
61488;BME280;47351;53.326;-6.298;2023-02-14T01:16:03;102300.23;;;6.42;72.99
61488;BME280;47351;53.326;-6.298;2023-02-14T01:19:04;102299.34;;;6.48;72.89
61488;BME280;47351;53.326;-6.298;2023-02-14T01:22:13;102290.27;;;6.52;72.68
61488;BME280;47351;53.326;-6.298;2023-02-14T01:25:22;102286.60;;;6.54;72.71
61488;BME280;47351;53.326;-6.298;2023-02-14T01:28:13;102286.97;;;6.59;73.09
61488;BME280;47351;53.326;-6.298;2023-02-14T01:31:22;102286.55;;;6.66;73.19
61488;BME280;47351;53.326;-6.298;2023-02-14T01:34:27;102285.89;;;6.68;73.26
61488;BME280;47351;53.326;-6.298;2023-02-14T01:37:35;102288.71;;;6.68;73.19
61488;BME280;47351;53.326;-6.298;2023-02-14T01:40:41;102281.37;;;6.67;73.34
61488;BME280;47351;53.326;-6.298;2023-02-14T01:43:51;102277.20;;;6.65;73.63
61488;BME280;47351;53.326;-6.298;2023-02-14T01:46:54;102280.11;;;6.64;73.93
61488;BME280;47351;53.326;-6.298;2023-02-14T01:50:05;102281.53;;;6.61;74.08
61488;BME280;47351;53.326;-6.298;2023-02-14T01:53:16;102276.84;;;6.57;74.28
61488;BME280;47351;53.326;-6.298;2023-02-14T01:56:28;102271.09;;;6.49;74.46
61488;BME280;47351;53.326;-6.298;2023-02-14T01:59:40;102257.30;;;6.42;74.92
61488;BME280;47351;53.326;-6.298;2023-02-14T02:02:51;102256.94;;;6.40;75.22
61488;BME280;47351;53.326;-6.298;2023-02-14T02:06:01;102259.21;;;6.40;75.72
61488;BME280;47351;53.326;-6.298;2023-02-14T02:09:14;102262.17;;;6.41;75.87
61488;BME280;47351;53.326;-6.298;2023-02-14T02:12:15;102263.64;;;6.40;75.78
61488;BME280;47351;53.326;-6.298;2023-02-14T02:15:24;102256.55;;;6.37;75.80
61488;BME280;47351;53.326;-6.298;2023-02-14T02:18:32;102254.16;;;6.38;76.18
61488;BME280;47351;53.326;-6.298;2023-02-14T02:25:07;102265.40;;;6.43;76.56
61488;BME280;47351;53.326;-6.298;2023-02-14T02:28:26;102255.80;;;6.50;76.86
61488;BME280;47351;53.326;-6.298;2023-02-14T02:31:33;102247.44;;;6.56;76.98
61488;BME280;47351;53.326;-6.298;2023-02-14T02:35:01;102235.48;;;6.63;77.44
61488;BME280;47351;53.326;-6.298;2023-02-14T02:38:18;102237.02;;;6.72;77.62
61488;BME280;47351;53.326;-6.298;2023-02-14T02:41:35;102240.69;;;6.82;77.49
61488;BME280;47351;53.326;-6.298;2023-02-14T02:44:40;102239.75;;;6.88;77.36
61488;BME280;47351;53.326;-6.298;2023-02-14T02:47:40;102234.10;;;6.90;77.40
61488;BME280;47351;53.326;-6.298;2023-02-14T02:50:52;102226.41;;;6.94;77.81
61488;BME280;47351;53.326;-6.298;2023-02-14T02:54:24;102228.36;;;7.00;77.91
61488;BME280;47351;53.326;-6.298;2023-02-14T02:57:38;102231.91;;;7.06;78.34
61488;BME280;47351;53.326;-6.298;2023-02-14T03:00:48;102233.80;;;7.09;78.08
61488;BME280;47351;53.326;-6.298;2023-02-14T03:03:58;102230.33;;;7.11;78.01
61488;BME280;47351;53.326;-6.298;2023-02-14T03:07:30;102233.56;;;7.10;77.63
61488;BME280;47351;53.326;-6.298;2023-02-14T03:10:26;102228.34;;;7.08;77.77
61488;BME280;47351;53.326;-6.298;2023-02-14T03:13:40;102223.70;;;7.09;77.88
61488;BME280;47351;53.326;-6.298;2023-02-14T03:16:55;102229.91;;;7.09;77.81
61488;BME280;47351;53.326;-6.298;2023-02-14T03:19:48;102229.64;;;7.10;77.90
61488;BME280;47351;53.326;-6.298;2023-02-14T03:23:13;102228.95;;;7.13;77.95
61488;BME280;47351;53.326;-6.298;2023-02-14T03:26:17;102221.90;;;7.14;77.87
61488;BME280;47351;53.326;-6.298;2023-02-14T03:29:15;102213.76;;;7.14;77.95
61488;BME280;47351;53.326;-6.298;2023-02-14T03:32:28;102205.73;;;7.15;78.39
61488;BME280;47351;53.326;-6.298;2023-02-14T03:35:41;102194.27;;;7.16;78.66
61488;BME280;47351;53.326;-6.298;2023-02-14T03:38:46;102189.48;;;7.16;78.72
61488;BME280;47351;53.326;-6.298;2023-02-14T03:41:58;102186.17;;;7.17;79.02
61488;BME280;47351;53.326;-6.298;2023-02-14T03:45:06;102184.73;;;7.18;79.04
61488;BME280;47351;53.326;-6.298;2023-02-14T03:48:16;102180.04;;;7.19;79.30
61488;BME280;47351;53.326;-6.298;2023-02-14T03:51:07;102187.62;;;7.20;79.35
61488;BME280;47351;53.326;-6.298;2023-02-14T03:54:17;102186.13;;;7.21;79.38
61488;BME280;47351;53.326;-6.298;2023-02-14T03:57:18;102186.89;;;7.23;79.61
61488;BME280;47351;53.326;-6.298;2023-02-14T04:00:29;102185.70;;;7.28;79.76
61488;BME280;47351;53.326;-6.298;2023-02-14T04:03:31;102178.70;;;7.32;79.88
61488;BME280;47351;53.326;-6.298;2023-02-14T04:06:30;102180.06;;;7.35;79.97
61488;BME280;47351;53.326;-6.298;2023-02-14T04:09:38;102183.32;;;7.40;80.03
61488;BME280;47351;53.326;-6.298;2023-02-14T04:12:40;102170.80;;;7.44;80.14
61488;BME280;47351;53.326;-6.298;2023-02-14T04:15:47;102174.60;;;7.48;80.33
61488;BME280;47351;53.326;-6.298;2023-02-14T04:18:56;102166.72;;;7.52;80.52
61488;BME280;47351;53.326;-6.298;2023-02-14T04:22:25;102161.33;;;7.55;80.60
61488;BME280;47351;53.326;-6.298;2023-02-14T04:25:27;102168.10;;;7.58;80.65
61488;BME280;47351;53.326;-6.298;2023-02-14T04:28:26;102166.63;;;7.58;80.40
61488;BME280;47351;53.326;-6.298;2023-02-14T04:31:17;102161.52;;;7.58;80.14
61488;BME280;47351;53.326;-6.298;2023-02-14T04:34:16;102160.61;;;7.58;80.23
61488;BME280;47351;53.326;-6.298;2023-02-14T04:37:07;102162.88;;;7.59;80.57
61488;BME280;47351;53.326;-6.298;2023-02-14T04:40:16;102153.08;;;7.62;80.65
61488;BME280;47351;53.326;-6.298;2023-02-14T04:43:25;102155.22;;;7.67;80.66
61488;BME280;47351;53.326;-6.298;2023-02-14T04:46:14;102159.72;;;7.71;80.58
61488;BME280;47351;53.326;-6.298;2023-02-14T04:49:23;102153.82;;;7.74;80.45
61488;BME280;47351;53.326;-6.298;2023-02-14T04:52:25;102155.67;;;7.78;80.30
61488;BME280;47351;53.326;-6.298;2023-02-14T04:55:16;102155.48;;;7.81;80.24
61488;BME280;47351;53.326;-6.298;2023-02-14T04:58:25;102152.96;;;7.84;80.15
61488;BME280;47351;53.326;-6.298;2023-02-14T05:01:24;102151.70;;;7.85;80.10
61488;BME280;47351;53.326;-6.298;2023-02-14T05:04:13;102152.99;;;7.84;79.92
61488;BME280;47351;53.326;-6.298;2023-02-14T05:07:22;102152.85;;;7.81;79.92
61488;BME280;47351;53.326;-6.298;2023-02-14T05:10:31;102146.17;;;7.77;80.02
61488;BME280;47351;53.326;-6.298;2023-02-14T05:13:34;102140.36;;;7.74;80.33
61488;BME280;47351;53.326;-6.298;2023-02-14T05:16:43;102145.43;;;7.72;80.61
61488;BME280;47351;53.326;-6.298;2023-02-14T05:19:32;102145.55;;;7.70;80.58
61488;BME280;47351;53.326;-6.298;2023-02-14T05:22:22;102143.60;;;7.68;80.67
61488;BME280;47351;53.326;-6.298;2023-02-14T05:25:20;102143.67;;;7.67;80.90
61488;BME280;47351;53.326;-6.298;2023-02-14T05:28:24;102143.84;;;7.67;81.03
61488;BME280;47351;53.326;-6.298;2023-02-14T05:31:24;102144.23;;;7.66;81.25
61488;BME280;47351;53.326;-6.298;2023-02-14T05:34:33;102137.75;;;7.65;81.49
61488;BME280;47351;53.326;-6.298;2023-02-14T05:37:32;102132.95;;;7.70;82.24
61488;BME280;47351;53.326;-6.298;2023-02-14T05:40:42;102132.77;;;7.78;82.54
61488;BME280;47351;53.326;-6.298;2023-02-14T05:43:51;102122.19;;;7.82;82.32
61488;BME280;47351;53.326;-6.298;2023-02-14T05:47:00;102123.71;;;7.85;82.46
61488;BME280;47351;53.326;-6.298;2023-02-14T05:50:00;102120.90;;;7.90;82.98
61488;BME280;47351;53.326;-6.298;2023-02-14T05:52:53;102124.48;;;7.96;83.11
61488;BME280;47351;53.326;-6.298;2023-02-14T05:55:53;102129.26;;;7.98;82.99
61488;BME280;47351;53.326;-6.298;2023-02-14T05:59:02;102123.65;;;8.02;83.09
61488;BME280;47351;53.326;-6.298;2023-02-14T06:02:00;102123.17;;;8.04;83.21
61488;BME280;47351;53.326;-6.298;2023-02-14T06:05:09;102114.63;;;8.04;83.20
61488;BME280;47351;53.326;-6.298;2023-02-14T06:08:18;102111.23;;;8.02;82.97
61488;BME280;47351;53.326;-6.298;2023-02-14T06:11:27;102106.25;;;7.99;83.09
61488;BME280;47351;53.326;-6.298;2023-02-14T06:14:25;102106.66;;;7.96;83.07
61488;BME280;47351;53.326;-6.298;2023-02-14T06:17:33;102106.48;;;7.93;83.35
61488;BME280;47351;53.326;-6.298;2023-02-14T06:20:41;102106.91;;;7.90;83.48
61488;BME280;47351;53.326;-6.298;2023-02-14T06:23:50;102102.23;;;7.85;83.68
61488;BME280;47351;53.326;-6.298;2023-02-14T06:26:59;102100.21;;;7.83;84.02
61488;BME280;47351;53.326;-6.298;2023-02-14T06:30:01;102098.77;;;7.86;84.83
61488;BME280;47351;53.326;-6.298;2023-02-14T06:32:55;102098.20;;;7.95;85.88
61488;BME280;47351;53.326;-6.298;2023-02-14T06:36:04;102097.16;;;8.05;85.84
61488;BME280;47351;53.326;-6.298;2023-02-14T06:39:13;102101.64;;;8.11;85.61
61488;BME280;47351;53.326;-6.298;2023-02-14T06:42:22;102100.83;;;8.16;85.60
61488;BME280;47351;53.326;-6.298;2023-02-14T06:45:22;102095.59;;;8.19;85.59
61488;BME280;47351;53.326;-6.298;2023-02-14T06:48:14;102105.98;;;8.23;85.87
61488;BME280;47351;53.326;-6.298;2023-02-14T06:51:22;102104.45;;;8.27;85.80
61488;BME280;47351;53.326;-6.298;2023-02-14T06:54:31;102109.05;;;8.30;85.76
61488;BME280;47351;53.326;-6.298;2023-02-14T06:57:22;102103.13;;;8.36;86.36
61488;BME280;47351;53.326;-6.298;2023-02-14T07:00:31;102102.09;;;8.43;86.54
61488;BME280;47351;53.326;-6.298;2023-02-14T07:03:40;102096.27;;;8.50;86.75
61488;BME280;47351;53.326;-6.298;2023-02-14T07:06:49;102091.55;;;8.54;86.52
61488;BME280;47351;53.326;-6.298;2023-02-14T07:09:49;102092.14;;;8.53;86.29
61488;BME280;47351;53.326;-6.298;2023-02-14T07:12:41;102093.20;;;8.51;85.94
61488;BME280;47351;53.326;-6.298;2023-02-14T07:15:50;102093.45;;;8.50;86.14
61488;BME280;47351;53.326;-6.298;2023-02-14T07:18:39;102095.14;;;8.51;86.27
61488;BME280;47351;53.326;-6.298;2023-02-14T07:21:30;102099.58;;;8.53;86.71
61488;BME280;47351;53.326;-6.298;2023-02-14T07:24:24;102102.33;;;8.60;86.89
61488;BME280;47351;53.326;-6.298;2023-02-14T07:27:32;102104.23;;;8.68;86.98
61488;BME280;47351;53.326;-6.298;2023-02-14T07:30:23;102111.34;;;8.75;87.12
61488;BME280;47351;53.326;-6.298;2023-02-14T07:33:15;102106.17;;;8.85;87.37
61488;BME280;47351;53.326;-6.298;2023-02-14T07:36:24;102108.33;;;8.94;87.34
61488;BME280;47351;53.326;-6.298;2023-02-14T07:39:33;102113.09;;;9.02;87.17
61488;BME280;47351;53.326;-6.298;2023-02-14T07:42:22;102119.92;;;9.09;87.38
61488;BME280;47351;53.326;-6.298;2023-02-14T07:45:16;102125.65;;;9.16;87.28
61488;BME280;47351;53.326;-6.298;2023-02-14T07:48:20;102129.16;;;9.21;87.15
61488;BME280;47351;53.326;-6.298;2023-02-14T07:51:13;102130.13;;;9.24;87.11
61488;BME280;47351;53.326;-6.298;2023-02-14T07:54:10;102125.05;;;9.28;87.02
61488;BME280;47351;53.326;-6.298;2023-02-14T07:57:18;102124.30;;;9.31;86.99
61488;BME280;47351;53.326;-6.298;2023-02-14T08:00:08;102125.35;;;9.34;86.85
61488;BME280;47351;53.326;-6.298;2023-02-14T08:03:19;102126.05;;;9.34;86.71
61488;BME280;47351;53.326;-6.298;2023-02-14T08:06:21;102132.98;;;9.34;86.59
61488;BME280;47351;53.326;-6.298;2023-02-14T08:09:33;102137.63;;;9.34;86.45
61488;BME280;47351;53.326;-6.298;2023-02-14T08:12:35;102139.90;;;9.32;86.33
61488;BME280;47351;53.326;-6.298;2023-02-14T08:16:02;102148.23;;;9.33;86.53
61488;BME280;47351;53.326;-6.298;2023-02-14T08:19:07;102155.25;;;9.37;86.47
61488;BME280;47351;53.326;-6.298;2023-02-14T08:22:04;102151.13;;;9.39;86.46
61488;BME280;47351;53.326;-6.298;2023-02-14T08:25:01;102143.11;;;9.44;86.41
61488;BME280;47351;53.326;-6.298;2023-02-14T08:28:00;102138.64;;;9.49;86.32
61488;BME280;47351;53.326;-6.298;2023-02-14T08:31:03;102139.75;;;9.58;86.29
61488;BME280;47351;53.326;-6.298;2023-02-14T08:33:55;102128.44;;;9.68;86.37
61488;BME280;47351;53.326;-6.298;2023-02-14T08:36:47;102127.84;;;9.85;86.26
61488;BME280;47351;53.326;-6.298;2023-02-14T08:39:54;102122.98;;;10.04;86.08
61488;BME280;47351;53.326;-6.298;2023-02-14T08:42:44;102123.14;;;10.25;86.03
61488;BME280;47351;53.326;-6.298;2023-02-14T08:45:33;102123.73;;;10.45;85.88
61488;BME280;47351;53.326;-6.298;2023-02-14T08:48:22;102124.80;;;10.65;85.56
61488;BME280;47351;53.326;-6.298;2023-02-14T08:51:14;102127.66;;;10.84;85.04
61488;BME280;47351;53.326;-6.298;2023-02-14T08:54:03;102134.30;;;11.02;84.53
61488;BME280;47351;53.326;-6.298;2023-02-14T08:56:54;102135.60;;;11.14;84.25
61488;BME280;47351;53.326;-6.298;2023-02-14T08:59:44;102135.06;;;11.20;83.70
61488;BME280;47351;53.326;-6.298;2023-02-14T09:02:33;102142.26;;;11.24;83.65
61488;BME280;47351;53.326;-6.298;2023-02-14T09:05:42;102138.54;;;11.28;83.24
61488;BME280;47351;53.326;-6.298;2023-02-14T09:08:31;102126.57;;;11.30;82.84
61488;BME280;47351;53.326;-6.298;2023-02-14T09:11:22;102126.75;;;11.28;82.83
61488;BME280;47351;53.326;-6.298;2023-02-14T09:14:22;102129.63;;;11.21;82.60
61488;BME280;47351;53.326;-6.298;2023-02-14T09:17:11;102132.16;;;11.17;82.55
61488;BME280;47351;53.326;-6.298;2023-02-14T09:20:00;102136.16;;;11.13;82.27
61488;BME280;47351;53.326;-6.298;2023-02-14T09:22:54;102132.80;;;11.16;82.25
61488;BME280;47351;53.326;-6.298;2023-02-14T09:25:45;102136.06;;;11.24;82.22
61488;BME280;47351;53.326;-6.298;2023-02-14T09:28:46;102141.25;;;11.34;82.10
61488;BME280;47351;53.326;-6.298;2023-02-14T09:31:38;102144.51;;;11.42;81.95
61488;BME280;47351;53.326;-6.298;2023-02-14T09:34:27;102145.04;;;11.51;81.65
61488;BME280;47351;53.326;-6.298;2023-02-14T09:37:25;102142.60;;;11.65;81.66
61488;BME280;47351;53.326;-6.298;2023-02-14T09:40:17;102144.75;;;11.77;81.28
61488;BME280;47351;53.326;-6.298;2023-02-14T09:43:12;102142.25;;;11.79;80.91
61488;BME280;47351;53.326;-6.298;2023-02-14T09:46:10;102155.09;;;11.84;80.92
61488;BME280;47351;53.326;-6.298;2023-02-14T09:49:12;102156.18;;;11.99;80.89
61488;BME280;47351;53.326;-6.298;2023-02-14T09:52:03;102147.50;;;12.20;80.22
61488;BME280;47351;53.326;-6.298;2023-02-14T09:54:59;102137.65;;;12.43;79.46
61488;BME280;47351;53.326;-6.298;2023-02-14T09:58:10;102141.29;;;12.64;79.39
61488;BME280;47351;53.326;-6.298;2023-02-14T10:01:06;102143.77;;;12.79;78.99
61488;BME280;47351;53.326;-6.298;2023-02-14T10:04:15;102141.83;;;12.83;78.91
61488;BME280;47351;53.326;-6.298;2023-02-14T10:07:12;102137.75;;;12.84;78.70
61488;BME280;47351;53.326;-6.298;2023-02-14T10:10:12;102146.24;;;12.89;78.83
61488;BME280;47351;53.326;-6.298;2023-02-14T10:13:03;102148.89;;;13.02;78.79
61488;BME280;47351;53.326;-6.298;2023-02-14T10:16:02;102151.89;;;13.36;78.18
61488;BME280;47351;53.326;-6.298;2023-02-14T10:18:58;102147.42;;;13.74;77.73
61488;BME280;47351;53.326;-6.298;2023-02-14T10:21:49;102145.20;;;14.06;77.09
61488;BME280;47351;53.326;-6.298;2023-02-14T10:24:40;102142.75;;;14.31;75.56
61488;BME280;47351;53.326;-6.298;2023-02-14T10:27:31;102140.94;;;14.45;74.60
61488;BME280;47351;53.326;-6.298;2023-02-14T10:30:22;102141.54;;;14.70;74.16
61488;BME280;47351;53.326;-6.298;2023-02-14T10:33:12;102137.47;;;14.88;73.15
61488;BME280;47351;53.326;-6.298;2023-02-14T10:36:04;102142.84;;;15.13;73.01
61488;BME280;47351;53.326;-6.298;2023-02-14T10:38:57;102144.29;;;15.31;72.34
61488;BME280;47351;53.326;-6.298;2023-02-14T10:41:48;102144.41;;;15.44;71.52
61488;BME280;47351;53.326;-6.298;2023-02-14T10:44:40;102143.44;;;15.52;71.00
61488;BME280;47351;53.326;-6.298;2023-02-14T10:47:35;102150.15;;;15.55;70.03
61488;BME280;47351;53.326;-6.298;2023-02-14T10:50:29;102147.80;;;15.69;69.87
61488;BME280;47351;53.326;-6.298;2023-02-14T10:53:20;102148.74;;;15.88;69.55
61488;BME280;47351;53.326;-6.298;2023-02-14T10:56:14;102140.27;;;16.08;69.39
61488;BME280;47351;53.326;-6.298;2023-02-14T10:59:13;102138.26;;;16.29;68.84
61488;BME280;47351;53.326;-6.298;2023-02-14T11:02:04;102130.86;;;16.51;68.46
61488;BME280;47351;53.326;-6.298;2023-02-14T11:04:53;102127.94;;;16.88;68.34
61488;BME280;47351;53.326;-6.298;2023-02-14T11:07:42;102125.08;;;17.32;67.45
61488;BME280;47351;53.326;-6.298;2023-02-14T11:10:31;102127.86;;;17.59;66.36
61488;BME280;47351;53.326;-6.298;2023-02-14T11:13:32;102121.94;;;17.78;65.54
61488;BME280;47351;53.326;-6.298;2023-02-14T11:16:29;102113.51;;;18.37;63.93
61488;BME280;47351;53.326;-6.298;2023-02-14T11:19:19;102116.63;;;18.98;61.55
61488;BME280;47351;53.326;-6.298;2023-02-14T11:22:08;102119.00;;;19.39;60.69
61488;BME280;47351;53.326;-6.298;2023-02-14T11:25:02;102123.27;;;20.48;59.33
61488;BME280;47351;53.326;-6.298;2023-02-14T11:27:53;102122.85;;;21.38;56.90
61488;BME280;47351;53.326;-6.298;2023-02-14T11:30:45;102125.17;;;21.88;55.21
61488;BME280;47351;53.326;-6.298;2023-02-14T11:33:36;102114.80;;;21.59;54.72
61488;BME280;47351;53.326;-6.298;2023-02-14T11:36:25;102116.16;;;21.65;54.00
61488;BME280;47351;53.326;-6.298;2023-02-14T11:39:17;102113.79;;;21.28;52.79
61488;BME280;47351;53.326;-6.298;2023-02-14T11:42:09;102110.70;;;20.79;53.48
61488;BME280;47351;53.326;-6.298;2023-02-14T11:44:59;102103.42;;;20.91;54.47
61488;BME280;47351;53.326;-6.298;2023-02-14T11:47:48;102091.03;;;21.74;52.65
61488;BME280;47351;53.326;-6.298;2023-02-14T11:50:54;102080.01;;;22.50;52.07
61488;BME280;47351;53.326;-6.298;2023-02-14T11:53:44;102076.71;;;23.85;51.07
61488;BME280;47351;53.326;-6.298;2023-02-14T11:56:43;102068.59;;;24.89;47.81
61488;BME280;47351;53.326;-6.298;2023-02-14T11:59:34;102063.86;;;24.58;47.79
61488;BME280;47351;53.326;-6.298;2023-02-14T12:02:26;102065.36;;;24.08;46.74
61488;BME280;47351;53.326;-6.298;2023-02-14T12:05:17;102048.77;;;24.12;45.73
61488;BME280;47351;53.326;-6.298;2023-02-14T12:08:07;102041.46;;;24.73;44.55
61488;BME280;47351;53.326;-6.298;2023-02-14T12:11:02;102037.77;;;24.94;43.05
61488;BME280;47351;53.326;-6.298;2023-02-14T12:13:51;102029.28;;;25.61;42.09
61488;BME280;47351;53.326;-6.298;2023-02-14T12:16:42;102019.02;;;26.34;40.90
61488;BME280;47351;53.326;-6.298;2023-02-14T12:19:36;102013.14;;;26.44;39.77
61488;BME280;47351;53.326;-6.298;2023-02-14T12:22:30;102007.38;;;26.08;39.64
61488;BME280;47351;53.326;-6.298;2023-02-14T12:25:21;102011.48;;;25.27;38.83
61488;BME280;47351;53.326;-6.298;2023-02-14T12:28:12;102007.34;;;24.54;38.62
61488;BME280;47351;53.326;-6.298;2023-02-14T12:31:07;102002.35;;;23.88;39.78
61488;BME280;47351;53.326;-6.298;2023-02-14T12:33:56;102003.49;;;23.03;40.79
61488;BME280;47351;53.326;-6.298;2023-02-14T12:36:50;102004.13;;;22.60;41.09
61488;BME280;47351;53.326;-6.298;2023-02-14T12:39:46;101999.16;;;21.52;41.39
61488;BME280;47351;53.326;-6.298;2023-02-14T12:42:41;101997.12;;;20.43;42.74
61488;BME280;47351;53.326;-6.298;2023-02-14T12:45:41;101995.09;;;19.67;43.42
61488;BME280;47351;53.326;-6.298;2023-02-14T12:48:40;101997.77;;;19.18;44.70
61488;BME280;47351;53.326;-6.298;2023-02-14T12:51:35;101998.98;;;18.86;45.61
61488;BME280;47351;53.326;-6.298;2023-02-14T12:54:31;101993.25;;;18.88;45.46
61488;BME280;47351;53.326;-6.298;2023-02-14T12:57:26;101986.98;;;19.63;44.59
61488;BME280;47351;53.326;-6.298;2023-02-14T13:00:22;101979.64;;;20.84;43.11
61488;BME280;47351;53.326;-6.298;2023-02-14T13:03:25;101974.73;;;21.99;41.63
61488;BME280;47351;53.326;-6.298;2023-02-14T13:06:17;101971.30;;;22.00;40.69
61488;BME280;47351;53.326;-6.298;2023-02-14T13:09:13;101963.66;;;21.92;40.33
61488;BME280;47351;53.326;-6.298;2023-02-14T13:12:09;101963.08;;;21.67;40.78
61488;BME280;47351;53.326;-6.298;2023-02-14T13:15:05;101957.91;;;21.36;40.12
61488;BME280;47351;53.326;-6.298;2023-02-14T13:18:02;101956.75;;;20.91;40.01
61488;BME280;47351;53.326;-6.298;2023-02-14T13:20:52;101958.40;;;21.01;40.28
61488;BME280;47351;53.326;-6.298;2023-02-14T13:23:42;101950.98;;;21.61;39.66
61488;BME280;47351;53.326;-6.298;2023-02-14T13:26:33;101953.87;;;22.53;38.84
61488;BME280;47351;53.326;-6.298;2023-02-14T13:29:23;101945.02;;;23.11;36.64
61488;BME280;47351;53.326;-6.298;2023-02-14T13:32:13;101949.45;;;22.94;36.70
61488;BME280;47351;53.326;-6.298;2023-02-14T13:35:03;101944.33;;;22.50;37.80
61488;BME280;47351;53.326;-6.298;2023-02-14T13:37:53;101941.02;;;22.13;38.47
61488;BME280;47351;53.326;-6.298;2023-02-14T13:40:43;101939.70;;;21.72;38.73
61488;BME280;47351;53.326;-6.298;2023-02-14T13:43:45;101939.69;;;21.36;38.95
61488;BME280;47351;53.326;-6.298;2023-02-14T13:46:48;101943.73;;;21.37;38.86
61488;BME280;47351;53.326;-6.298;2023-02-14T13:49:37;101939.41;;;21.42;38.85
61488;BME280;47351;53.326;-6.298;2023-02-14T13:52:39;101932.87;;;21.26;39.73
61488;BME280;47351;53.326;-6.298;2023-02-14T13:55:30;101929.43;;;21.05;40.39
61488;BME280;47351;53.326;-6.298;2023-02-14T13:58:20;101934.55;;;20.79;40.82
61488;BME280;47351;53.326;-6.298;2023-02-14T14:07:22;101934.89;;;20.01;41.97
61488;BME280;47351;53.326;-6.298;2023-02-14T14:10:13;101935.13;;;19.64;42.43
61488;BME280;47351;53.326;-6.298;2023-02-14T14:16:29;101952.65;;;18.80;43.23
61488;BME280;47351;53.326;-6.298;2023-02-14T14:22:20;101950.15;;;18.32;44.23
61488;BME280;47351;53.326;-6.298;2023-02-14T14:25:09;101945.75;;;18.03;44.56
61488;BME280;47351;53.326;-6.298;2023-02-14T14:27:58;101950.30;;;17.82;44.84
61488;BME280;47351;53.326;-6.298;2023-02-14T14:30:47;101947.08;;;17.61;45.02
61488;BME280;47351;53.326;-6.298;2023-02-14T14:33:36;101942.15;;;17.42;45.45
61488;BME280;47351;53.326;-6.298;2023-02-14T14:36:24;101932.54;;;17.29;45.66
61488;BME280;47351;53.326;-6.298;2023-02-14T14:39:24;101925.30;;;17.27;46.10
61488;BME280;47351;53.326;-6.298;2023-02-14T14:42:14;101918.20;;;17.23;45.82
61488;BME280;47351;53.326;-6.298;2023-02-14T14:45:04;101924.64;;;17.17;45.72
61488;BME280;47351;53.326;-6.298;2023-02-14T14:47:54;101921.89;;;17.03;45.99
61488;BME280;47351;53.326;-6.298;2023-02-14T14:50:45;101915.89;;;16.85;46.52
61488;BME280;47351;53.326;-6.298;2023-02-14T14:53:39;101917.45;;;16.67;47.09
61488;BME280;47351;53.326;-6.298;2023-02-14T14:56:31;101923.35;;;16.48;47.64
61488;BME280;47351;53.326;-6.298;2023-02-14T14:59:26;101923.83;;;16.31;48.02
61488;BME280;47351;53.326;-6.298;2023-02-14T15:02:24;101929.10;;;16.17;48.53
61488;BME280;47351;53.326;-6.298;2023-02-14T15:05:18;101926.13;;;16.04;48.80
61488;BME280;47351;53.326;-6.298;2023-02-14T15:08:27;101926.94;;;15.93;48.71
61488;BME280;47351;53.326;-6.298;2023-02-14T15:11:19;101929.15;;;15.86;48.71
61488;BME280;47351;53.326;-6.298;2023-02-14T15:14:23;101924.15;;;15.81;48.67
61488;BME280;47351;53.326;-6.298;2023-02-14T15:17:15;101922.64;;;15.73;48.81
61488;BME280;47351;53.326;-6.298;2023-02-14T15:20:09;101921.90;;;15.73;49.02
61488;BME280;47351;53.326;-6.298;2023-02-14T15:23:02;101923.73;;;15.74;49.49
61488;BME280;47351;53.326;-6.298;2023-02-14T15:25:52;101923.48;;;15.71;49.86
61488;BME280;47351;53.326;-6.298;2023-02-14T15:28:41;101933.90;;;15.75;50.20
61488;BME280;47351;53.326;-6.298;2023-02-14T15:31:33;101933.05;;;15.83;50.34
61488;BME280;47351;53.326;-6.298;2023-02-14T15:34:23;101933.30;;;16.13;50.11
61488;BME280;47351;53.326;-6.298;2023-02-14T15:37:12;101931.23;;;16.35;49.81
61488;BME280;47351;53.326;-6.298;2023-02-14T15:40:00;101929.52;;;16.43;49.67
61488;BME280;47351;53.326;-6.298;2023-02-14T15:42:49;101917.73;;;16.60;49.39
61488;BME280;47351;53.326;-6.298;2023-02-14T15:45:43;101907.12;;;16.73;49.39
61488;BME280;47351;53.326;-6.298;2023-02-14T15:48:32;101904.13;;;16.59;49.51